Time;durP1;ratioP1;P1;durP2;ratioP2;P2;SDS_P1;SDS_P2;PMS_P1;PMS_P2;Temp;Humidity;BMP_temperature;BMP_pressure;BME280_temperature;BME280_humidity;BME280_pressure;Samples;Min_cycle;Max_cycle;Signal;HPM_P1;HPM_P2
2021/12/25 00:00:46;;;;;;;12.90;11.70;;;20.00;39.20;;;;;;5039327;28;20472;-67
2021/12/25 00:03:11;;;;;;;15.70;12.70;;;20.00;39.20;;;;;;5040481;28;20959;-67
2021/12/25 00:05:37;;;;;;;15.10;13.20;;;20.00;39.20;;;;;;5039996;28;20234;-68
2021/12/25 00:08:03;;;;;;;13.17;11.87;;;20.00;39.20;;;;;;5037876;28;20317;-67
2021/12/25 00:10:30;;;;;;;16.53;12.70;;;20.00;39.20;;;;;;5034149;28;20223;-67
2021/12/25 00:12:56;;;;;;;13.00;11.70;;;20.00;39.20;;;;;;5036781;28;20227;-67
2021/12/25 00:15:22;;;;;;;14.90;13.20;;;19.90;39.10;;;;;;5040923;28;20439;-68
2021/12/25 00:17:48;;;;;;;12.23;11.00;;;19.90;39.10;;;;;;5039185;28;20448;-68
2021/12/25 00:20:14;;;;;;;13.53;12.23;;;19.90;39.10;;;;;;5039167;28;20223;-68
2021/12/25 00:22:40;;;;;;;13.07;11.70;;;19.90;39.10;;;;;;5042384;28;20467;-67
2021/12/25 00:25:06;;;;;;;11.27;10.10;;;19.90;39.10;;;;;;5038277;28;20304;-67
2021/12/25 00:27:43;;;;;;;11.47;10.47;;;19.90;39.10;;;;;;5041175;28;20227;-67
2021/12/25 00:30:17;;;;;;;12.67;11.47;;;19.90;39.10;;;;;;5039915;28;20440;-68
2021/12/25 00:32:53;;;;;;;10.63;9.63;;;19.90;39.10;;;;;;5039103;28;20443;-67
2021/12/25 00:35:19;;;;;;;11.67;10.53;;;19.90;39.10;;;;;;5034914;28;20440;-67
2021/12/25 00:37:45;;;;;;;12.77;11.47;;;19.90;39.10;;;;;;5033554;28;20448;-67
2021/12/25 00:40:11;;;;;;;16.67;12.23;;;19.90;39.10;;;;;;5036791;28;20818;-68
2021/12/25 00:42:37;;;;;;;13.70;12.30;;;19.90;39.10;;;;;;5037757;28;21376;-67
2021/12/25 00:45:03;;;;;;;12.60;11.07;;;19.80;39.60;;;;;;5037334;28;20459;-67
2021/12/25 00:47:29;;;;;;;14.87;13.30;;;19.90;39.10;;;;;;5037351;28;20270;-68
2021/12/25 00:49:55;;;;;;;12.40;11.30;;;19.80;39.00;;;;;;5039085;28;20468;-67
2021/12/25 00:52:20;;;;;;;13.70;11.57;;;19.80;39.00;;;;;;5038482;28;20273;-67
2021/12/25 00:54:46;;;;;;;13.23;11.33;;;19.80;39.00;;;;;;5034882;28;20327;-66
2021/12/25 00:57:12;;;;;;;12.80;11.50;;;19.80;39.00;;;;;;5035763;28;20215;-67
2021/12/25 00:59:37;;;;;;;12.33;11.13;;;19.80;39.00;;;;;;5035711;28;20227;-67
2021/12/25 01:02:03;;;;;;;10.60;9.70;;;19.80;39.80;;;;;;5036737;28;20284;-67
2021/12/25 01:04:29;;;;;;;12.40;11.13;;;19.80;39.00;;;;;;5034026;28;20227;-67
2021/12/25 01:06:55;;;;;;;10.30;9.30;;;19.80;39.00;;;;;;5036873;28;20851;-67
2021/12/25 01:09:21;;;;;;;10.27;9.27;;;19.80;39.00;;;;;;5040933;28;20226;-67
2021/12/25 01:11:49;;;;;;;12.67;11.17;;;19.80;39.00;;;;;;5040335;28;20219;-68
2021/12/25 01:17:16;;;;;;;10.93;9.90;;;19.80;39.00;;;;;;5037234;28;20511;-68
2021/12/25 01:40:44;;;;;;;10.47;9.47;;;19.80;39.00;;;;;;5039801;28;20909;-68
2021/12/25 01:48:42;;;;;;;11.10;10.00;;;19.70;39.00;;;;;;5037097;28;20536;-67
2021/12/25 01:51:08;;;;;;;12.27;10.63;;;19.70;39.00;;;;;;5040625;28;21190;-68
2021/12/25 01:53:34;;;;;;;10.83;9.93;;;19.70;39.00;;;;;;5037360;28;20543;-67
2021/12/25 01:56:01;;;;;;;10.33;9.43;;;19.70;39.00;;;;;;5038413;28;20233;-67
2021/12/25 01:58:26;;;;;;;11.57;10.47;;;19.70;39.00;;;;;;5037777;28;20483;-67
2021/12/25 02:00:55;;;;;;;8.93;8.20;;;19.70;39.00;;;;;;5036833;28;20444;-67
2021/12/25 02:03:23;;;;;;;10.30;9.40;;;19.70;39.00;;;;;;5038994;28;20234;-67
2021/12/25 02:05:49;;;;;;;11.23;10.20;;;19.70;39.00;;;;;;5036426;28;20551;-68
2021/12/25 02:08:15;;;;;;;11.60;10.60;;;19.70;39.00;;;;;;5035581;28;20546;-67
2021/12/25 02:10:41;;;;;;;9.70;9.00;;;19.70;39.70;;;;;;5033347;28;20215;-67
2021/12/25 02:13:09;;;;;;;11.63;10.00;;;19.70;39.00;;;;;;5031175;28;20452;-66
2021/12/25 02:15:35;;;;;;;9.87;8.97;;;19.70;39.00;;;;;;5034468;28;20215;-68
2021/12/25 02:20:47;;;;;;;10.73;9.73;;;19.70;39.00;;;;;;5038669;28;20471;-67
2021/12/25 02:23:22;;;;;;;9.57;8.77;;;19.70;39.00;;;;;;5032365;28;20456;-66
2021/12/25 02:25:52;;;;;;;10.20;9.30;;;19.70;39.00;;;;;;5035880;28;20448;-68
2021/12/25 02:28:18;;;;;;;10.70;9.70;;;19.70;39.00;;;;;;5038345;28;20441;-66
2021/12/25 02:30:47;;;;;;;10.40;9.17;;;19.70;39.00;;;;;;5037456;28;20435;-66
2021/12/25 02:33:13;;;;;;;8.87;8.17;;;19.70;39.00;;;;;;5036878;28;20939;-66
2021/12/25 02:35:39;;;;;;;9.73;8.87;;;19.70;39.00;;;;;;5037983;28;20500;-67
2021/12/25 02:38:05;;;;;;;8.00;7.40;;;19.70;39.00;;;;;;5032593;28;20219;-66
2021/12/25 02:40:31;;;;;;;9.37;8.47;;;19.70;39.00;;;;;;5031050;28;20234;-67
2021/12/25 02:42:57;;;;;;;8.70;8.00;;;19.70;39.00;;;;;;5041168;28;20559;-67
2021/12/25 02:45:23;;;;;;;9.87;8.97;;;19.70;39.00;;;;;;5036313;28;21986;-66
2021/12/25 02:47:52;;;;;;;9.37;8.57;;;19.70;39.70;;;;;;5035815;28;20227;-67
2021/12/25 02:50:32;;;;;;;9.50;8.70;;;19.70;39.00;;;;;;5038432;28;20523;-66
2021/12/25 02:53:00;;;;;;;10.90;9.83;;;19.70;39.00;;;;;;5035676;28;20836;-67
2021/12/25 02:55:26;;;;;;;10.90;9.80;;;19.70;39.00;;;;;;5032512;28;20436;-67
2021/12/25 02:57:52;;;;;;;9.40;8.60;;;19.60;38.90;;;;;;5036035;28;20440;-67
2021/12/25 03:00:24;;;;;;;10.10;9.10;;;19.70;39.00;;;;;;5036742;28;20857;-66
2021/12/25 03:02:50;;;;;;;9.70;8.90;;;19.60;38.90;;;;;;5038814;28;20317;-66
2021/12/25 03:05:16;;;;;;;10.07;9.17;;;19.60;38.90;;;;;;5039224;28;20418;-66
2021/12/25 03:07:43;;;;;;;7.80;7.20;;;19.60;38.90;;;;;;5037196;28;20411;-67
2021/12/25 03:10:10;;;;;;;8.67;7.90;;;19.60;38.90;;;;;;5033314;28;20502;-68
2021/12/25 03:12:48;;;;;;;7.40;6.80;;;19.60;38.90;;;;;;5038492;28;20448;-67
2021/12/25 03:15:17;;;;;;;8.30;7.70;;;19.60;38.90;;;;;;5036953;28;20539;-66
2021/12/25 03:17:44;;;;;;;7.23;6.70;;;19.60;38.90;;;;;;5040103;28;20460;-66
2021/12/25 03:20:11;;;;;;;7.00;6.50;;;19.60;38.90;;;;;;5030052;28;20451;-66
2021/12/25 03:22:38;;;;;;;7.47;6.87;;;19.60;38.90;;;;;;5030999;28;20460;-66
2021/12/25 03:25:13;;;;;;;8.70;8.00;;;19.60;38.90;;;;;;5039716;28;20439;-66
2021/12/25 03:27:40;;;;;;;10.33;9.43;;;19.60;38.90;;;;;;5033185;28;20448;-67
2021/12/25 03:30:07;;;;;;;9.10;8.37;;;19.60;38.90;;;;;;5034990;28;20452;-65
2021/12/25 03:32:33;;;;;;;10.03;9.23;;;19.60;38.90;;;;;;5036020;28;20542;-66
2021/12/25 03:34:58;;;;;;;10.80;8.90;;;19.60;38.90;;;;;;5030179;28;20543;-65
2021/12/25 03:37:24;;;;;;;9.73;8.90;;;19.60;38.90;;;;;;5035761;28;20440;-66
2021/12/25 03:39:50;;;;;;;9.27;8.37;;;19.60;38.90;;;;;;5035783;28;20219;-67
2021/12/25 03:42:16;;;;;;;10.00;9.00;;;19.60;38.90;;;;;;5038280;28;20231;-68
2021/12/25 03:44:41;;;;;;;8.70;8.00;;;19.60;38.90;;;;;;5034804;28;20679;-68
2021/12/25 03:47:21;;;;;;;8.60;7.80;;;19.60;38.90;;;;;;5030263;28;20285;-66
2021/12/25 03:58:04;;;;;;;7.97;7.37;;;19.60;38.90;;;;;;5036231;28;20463;-66
2021/12/25 04:00:31;;;;;;;8.27;7.60;;;19.60;38.90;;;;;;5033717;28;20454;-65
2021/12/25 04:03:02;;;;;;;9.30;8.40;;;19.60;38.90;;;;;;5034080;28;20460;-66
2021/12/25 04:05:31;;;;;;;8.93;8.10;;;19.60;38.90;;;;;;5035354;28;20467;-65
2021/12/25 04:10:23;;;;;;;8.60;7.90;;;19.60;38.90;;;;;;5037029;28;20422;-65
2021/12/25 04:12:48;;;;;;;8.03;7.40;;;19.60;38.90;;;;;;5039138;28;20215;-66
2021/12/25 04:15:14;;;;;;;10.50;7.77;;;19.60;38.90;;;;;;5035722;28;20219;-65
2021/12/25 04:17:39;;;;;;;8.63;7.93;;;19.60;38.90;;;;;;5034471;28;20810;-65
2021/12/25 04:20:06;;;;;;;8.77;7.97;;;19.60;38.90;;;;;;5037010;28;20245;-65
2021/12/25 04:22:44;;;;;;;7.70;7.10;;;19.60;38.90;;;;;;5039020;28;20245;-65
2021/12/25 04:25:10;;;;;;;7.90;7.30;;;19.60;39.60;;;;;;5035970;28;20953;-65
2021/12/25 04:27:37;;;;;;;7.20;6.70;;;19.60;38.90;;;;;;5037066;28;20478;-65
2021/12/25 04:30:17;;;;;;;7.37;6.77;;;19.60;38.90;;;;;;5034975;28;20671;-65
2021/12/25 05:02:58;;;;;;;7.47;6.70;;;19.60;38.90;;;;;;5038140;28;20459;-65
2021/12/25 05:05:23;;;;;;;7.10;6.50;;;19.60;38.90;;;;;;5040641;28;20418;-65
2021/12/25 05:07:49;;;;;;;8.67;7.87;;;19.60;38.90;;;;;;5039518;28;20539;-65
2021/12/25 05:10:15;;;;;;;7.87;7.30;;;19.60;38.90;;;;;;5039437;28;20227;-65
2021/12/25 05:12:40;;;;;;;9.33;8.53;;;19.60;38.90;;;;;;5037637;28;20227;-64
2021/12/25 05:15:07;;;;;;;9.23;8.47;;;19.60;38.90;;;;;;5038471;28;20257;-64
2021/12/25 05:17:32;;;;;;;8.80;8.00;;;19.60;38.90;;;;;;5038347;28;20223;-64
2021/12/25 05:19:59;;;;;;;10.20;9.30;;;19.60;38.90;;;;;;5040065;28;20463;-65
2021/12/25 05:22:25;;;;;;;9.30;8.50;;;19.60;38.90;;;;;;5045543;28;20293;-64
2021/12/25 05:24:51;;;;;;;9.20;8.47;;;19.70;39.00;;;;;;5036136;28;20440;-65
2021/12/25 05:27:17;;;;;;;9.20;8.43;;;19.70;39.00;;;;;;5038991;28;20284;-65
2021/12/25 05:29:46;;;;;;;8.20;7.60;;;19.70;39.00;;;;;;5036876;28;20812;-64
2021/12/25 05:32:13;;;;;;;7.60;7.00;;;19.70;39.00;;;;;;5039146;28;20563;-66
2021/12/25 05:34:40;;;;;;;8.47;7.77;;;19.70;39.00;;;;;;5034064;28;20493;-64
2021/12/25 05:37:06;;;;;;;7.70;7.07;;;19.70;39.00;;;;;;5034170;28;20455;-63
2021/12/25 05:39:31;;;;;;;15.20;8.13;;;19.70;39.00;;;;;;5037179;28;20448;-65
2021/12/25 05:41:58;;;;;;;7.80;7.20;;;19.70;39.00;;;;;;5039234;28;20442;-65
2021/12/25 05:44:25;;;;;;;7.90;7.23;;;19.70;39.00;;;;;;5034759;28;20358;-63
2021/12/25 05:46:51;;;;;;;7.60;7.00;;;19.70;39.00;;;;;;5039884;28;20566;-63
2021/12/25 05:49:16;;;;;;;8.33;7.53;;;19.80;39.00;;;;;;5039013;28;20530;-63
2021/12/25 05:51:42;;;;;;;7.97;7.37;;;19.80;39.00;;;;;;5032022;28;20660;-64
2021/12/25 05:54:08;;;;;;;8.90;8.20;;;19.80;39.00;;;;;;5035995;28;20606;-67
2021/12/25 05:56:34;;;;;;;8.67;7.87;;;19.80;39.00;;;;;;5040879;28;20225;-68
2021/12/25 05:58:59;;;;;;;8.73;7.93;;;19.80;39.00;;;;;;5035856;28;20227;-68
2021/12/25 06:01:26;;;;;;;9.40;8.60;;;19.80;39.00;;;;;;5035580;28;20265;-69
2021/12/25 06:03:51;;;;;;;7.07;6.53;;;19.80;39.00;;;;;;5035663;28;20602;-67
2021/12/25 06:06:17;;;;;;;8.17;7.50;;;19.80;39.00;;;;;;5039129;28;21020;-65
2021/12/25 06:08:43;;;;;;;7.83;7.13;;;19.80;39.00;;;;;;5036650;28;20223;-67
2021/12/25 06:11:09;;;;;;;8.83;8.00;;;19.80;39.00;;;;;;5038822;28;20243;-67
2021/12/25 06:13:43;;;;;;;9.43;8.63;;;19.80;39.00;;;;;;5034796;28;20326;-68
2021/12/25 06:16:09;;;;;;;9.97;8.00;;;19.90;39.10;;;;;;5038501;28;20628;-68
2021/12/25 06:18:35;;;;;;;8.10;7.50;;;19.90;39.20;;;;;;5030300;28;20469;-68
2021/12/25 06:21:00;;;;;;;8.13;7.43;;;19.80;39.00;;;;;;5034329;28;20227;-68
2021/12/25 06:23:26;;;;;;;9.97;8.40;;;19.90;39.10;;;;;;5038029;28;20223;-68
2021/12/25 06:25:52;;;;;;;8.70;7.90;;;19.90;39.10;;;;;;5036472;28;20241;-69
2021/12/25 06:28:18;;;;;;;7.97;7.10;;;19.80;38.90;;;;;;5032959;28;20231;-68
2021/12/25 06:30:45;;;;;;;7.80;7.17;;;19.80;38.90;;;;;;5039530;28;20774;-68
2021/12/25 06:33:11;;;;;;;8.10;7.50;;;19.90;39.00;;;;;;5040088;28;20310;-68
2021/12/25 06:35:37;;;;;;;7.83;7.33;;;19.80;39.70;;;;;;5034484;28;20530;-67
2021/12/25 06:38:03;;;;;;;7.73;7.13;;;19.80;38.90;;;;;;5037016;28;20248;-67
2021/12/25 06:40:28;;;;;;;7.80;7.20;;;19.80;38.90;;;;;;5035666;28;20740;-68
2021/12/25 06:42:54;;;;;;;8.83;8.03;;;19.80;38.90;;;;;;5034807;28;20235;-68
2021/12/25 06:45:20;;;;;;;9.43;8.57;;;19.80;38.80;;;;;;5030812;28;20250;-67
2021/12/25 06:47:46;;;;;;;9.23;8.43;;;19.80;38.80;;;;;;5033425;28;20235;-67
2021/12/25 06:50:13;;;;;;;9.00;8.17;;;19.80;38.80;;;;;;5037573;28;20817;-67
2021/12/25 06:52:39;;;;;;;8.17;7.53;;;19.80;38.70;;;;;;5036980;28;20218;-67
2021/12/25 06:55:05;;;;;;;7.60;7.00;;;19.80;38.70;;;;;;5035952;28;20817;-66
2021/12/25 06:57:32;;;;;;;8.10;7.30;;;19.80;38.60;;;;;;5035174;28;20223;-66
2021/12/25 06:59:57;;;;;;;7.70;7.00;;;19.80;38.60;;;;;;5036279;28;20440;-66
2021/12/25 07:02:23;;;;;;;7.00;6.50;;;19.80;38.60;;;;;;5034816;28;20483;-67
2021/12/25 07:04:49;;;;;;;8.37;7.57;;;19.80;38.70;;;;;;5037883;28;20214;-68
2021/12/25 07:07:17;;;;;;;6.80;6.40;;;19.80;38.50;;;;;;5038263;28;20252;-66
2021/12/25 07:09:42;;;;;;;7.73;7.03;;;19.80;38.50;;;;;;5034562;28;20219;-66
2021/12/25 07:12:08;;;;;;;10.73;6.80;;;19.80;38.60;;;;;;5031134;28;20452;-65
2021/12/25 07:14:34;;;;;;;6.80;6.20;;;19.80;38.40;;;;;;5032920;28;20310;-66
2021/12/25 07:17:00;;;;;;;7.70;7.10;;;19.80;38.50;;;;;;5037981;28;20555;-67
2021/12/25 07:19:25;;;;;;;10.23;6.50;;;19.90;38.60;;;;;;5038286;28;20383;-66
2021/12/25 07:21:51;;;;;;;4.80;4.50;;;19.90;38.60;;;;;;5039308;28;20207;-67
2021/12/25 07:24:16;;;;;;;4.73;4.43;;;19.90;38.60;;;;;;5033589;28;20767;-68
2021/12/25 07:26:42;;;;;;;3.80;3.50;;;19.90;38.60;;;;;;5034729;28;20231;-66
2021/12/25 07:29:08;;;;;;;4.23;4.00;;;19.90;38.50;;;;;;5035325;28;20294;-69
2021/12/25 07:31:34;;;;;;;3.53;3.33;;;20.00;38.50;;;;;;5032110;28;20227;-68
2021/12/25 07:34:02;;;;;;;3.70;3.50;;;20.00;38.40;;;;;;5035634;28;20218;-68
2021/12/25 07:36:28;;;;;;;3.93;3.73;;;20.10;38.50;;;;;;5032779;28;20452;-67
2021/12/25 07:38:55;;;;;;;4.57;4.30;;;20.10;38.50;;;;;;5029521;28;20968;-68
2021/12/25 07:41:20;;;;;;;4.60;4.30;;;20.10;38.50;;;;;;5030074;28;20560;-64
2021/12/25 07:43:46;;;;;;;5.17;4.77;;;20.10;38.60;;;;;;5036930;28;20995;-64
2021/12/25 07:46:12;;;;;;;4.67;4.37;;;20.10;38.50;;;;;;5035264;28;20241;-64
2021/12/25 07:48:37;;;;;;;4.57;4.37;;;20.10;38.50;;;;;;5038013;28;20348;-64
2021/12/25 07:51:03;;;;;;;3.30;3.10;;;20.10;38.30;;;;;;5041588;28;20214;-62
2021/12/25 07:53:31;;;;;;;3.40;3.20;;;20.10;38.20;;;;;;5035609;28;20308;-62
2021/12/25 07:55:56;;;;;;;2.97;2.77;;;20.20;38.30;;;;;;5035833;28;20211;-62
2021/12/25 07:58:22;;;;;;;3.50;3.30;;;20.10;38.20;;;;;;5038570;28;20535;-61
2021/12/25 08:00:48;;;;;;;2.90;2.70;;;20.10;38.30;;;;;;5040218;28;20243;-62
2021/12/25 08:03:15;;;;;;;3.13;2.93;;;20.10;38.30;;;;;;5041588;28;20230;-61
2021/12/25 08:05:42;;;;;;;3.67;3.37;;;20.10;38.30;;;;;;5034295;28;20561;-63
2021/12/25 08:08:10;;;;;;;4.47;4.07;;;20.10;38.30;;;;;;5036332;28;20458;-61
2021/12/25 08:10:36;;;;;;;5.77;5.00;;;20.10;38.30;;;;;;5039455;28;20484;-62
2021/12/25 08:13:02;;;;;;;10.30;6.27;;;20.10;38.20;;;;;;5038714;28;20474;-61
2021/12/25 08:15:30;;;;;;;10.67;8.10;;;20.10;38.20;;;;;;5039445;28;20456;-61
2021/12/25 08:17:56;;;;;;;12.60;8.90;;;20.10;38.90;;;;;;5036417;28;20250;-63
2021/12/25 08:20:23;;;;;;;15.43;10.10;;;20.10;38.90;;;;;;5036676;28;20492;-62
2021/12/25 08:22:49;;;;;;;13.20;10.40;;;20.10;38.10;;;;;;5034907;28;21057;-62
2021/12/25 08:25:16;;;;;;;18.40;11.63;;;20.10;38.00;;;;;;5040616;28;20436;-63
2021/12/25 08:27:43;;;;;;;9.37;7.37;;;20.10;38.00;;;;;;5038228;28;20218;-66
2021/12/25 08:30:13;;;;;;;10.97;9.13;;;20.10;38.00;;;;;;5036428;28;20467;-63
2021/12/25 08:32:39;;;;;;;12.00;7.67;;;20.10;38.10;;;;;;5036656;28;20451;-63
2021/12/25 08:35:05;;;;;;;7.03;6.10;;;20.10;38.00;;;;;;5037614;28;20912;-65
2021/12/25 08:37:31;;;;;;;5.03;4.63;;;20.10;38.00;;;;;;5042093;28;20801;-63
2021/12/25 08:39:57;;;;;;;8.10;5.50;;;20.10;38.10;;;;;;5039206;28;20464;-67
2021/12/25 08:42:24;;;;;;;5.30;4.60;;;20.10;38.20;;;;;;5039884;28;20631;-64
2021/12/25 08:47:26;;;;;;;4.30;3.90;;;20.10;38.30;;;;;;5036049;28;20459;-64
2021/12/25 08:49:53;;;;;;;5.03;4.50;;;20.10;38.30;;;;;;5040455;28;20547;-66
2021/12/25 08:52:21;;;;;;;6.13;5.17;;;20.10;38.40;;;;;;5039673;28;20447;-67
2021/12/25 08:54:50;;;;;;;4.13;3.73;;;20.10;38.40;;;;;;5041252;28;20934;-66
2021/12/25 08:57:21;;;;;;;4.07;3.77;;;20.00;38.40;;;;;;5037551;28;20956;-67
2021/12/25 08:59:47;;;;;;;5.93;4.17;;;20.10;38.50;;;;;;5038441;28;20444;-70
2021/12/25 09:02:16;;;;;;;4.20;3.87;;;20.00;38.50;;;;;;5035066;28;20513;-67
2021/12/25 09:04:44;;;;;;;4.70;4.30;;;20.00;38.60;;;;;;5036086;28;20449;-67
2021/12/25 09:07:10;;;;;;;6.00;4.43;;;20.00;38.60;;;;;;5034704;28;20443;-66
2021/12/25 09:09:37;;;;;;;4.70;4.30;;;20.00;38.70;;;;;;5038498;28;20557;-67
2021/12/25 09:12:04;;;;;;;4.73;4.43;;;20.00;38.70;;;;;;5036837;28;20543;-66
2021/12/25 09:14:29;;;;;;;5.10;4.60;;;20.00;38.70;;;;;;5031220;28;20434;-65
2021/12/25 09:16:55;;;;;;;5.67;4.30;;;20.00;38.80;;;;;;5039772;28;20834;-65
2021/12/25 09:19:21;;;;;;;8.73;5.23;;;20.00;38.80;;;;;;5039199;28;20310;-66
2021/12/25 09:21:47;;;;;;;5.70;4.50;;;19.90;38.80;;;;;;5040064;28;20720;-66
2021/12/25 09:24:13;;;;;;;6.17;4.87;;;19.90;38.80;;;;;;5040691;28;20231;-63
2021/12/25 09:26:38;;;;;;;6.70;4.60;;;19.90;38.80;;;;;;5033648;28;20226;-66
2021/12/25 09:29:04;;;;;;;6.63;4.60;;;19.90;38.90;;;;;;5039834;28;20226;-63
2021/12/25 09:31:30;;;;;;;5.00;4.50;;;19.90;39.00;;;;;;5034846;28;20238;-66
2021/12/25 09:33:56;;;;;;;5.90;4.87;;;19.90;39.00;;;;;;5038668;28;20211;-65
2021/12/25 09:36:22;;;;;;;6.07;3.97;;;19.90;39.00;;;;;;5039451;28;20451;-65
2021/12/25 09:38:49;;;;;;;7.40;4.30;;;19.80;39.00;;;;;;5036181;28;20214;-64
2021/12/25 09:41:16;;;;;;;9.90;4.90;;;19.80;39.00;;;;;;5032982;28;20519;-63
2021/12/25 09:43:44;;;;;;;4.10;3.60;;;19.80;38.90;;;;;;5033241;28;20465;-64
2021/12/25 09:46:10;;;;;;;4.60;4.30;;;19.80;38.90;;;;;;5038633;28;20525;-64
2021/12/25 09:48:36;;;;;;;5.60;4.20;;;19.80;39.00;;;;;;5036432;28;20505;-64
2021/12/25 09:51:03;;;;;;;6.30;4.00;;;19.70;38.80;;;;;;5036647;28;20429;-62
2021/12/25 09:53:29;;;;;;;4.43;4.03;;;19.70;38.70;;;;;;5035368;28;20308;-64
2021/12/25 09:55:55;;;;;;;4.60;4.20;;;19.70;38.70;;;;;;5032205;28;20476;-64
2021/12/25 09:58:21;;;;;;;4.50;4.10;;;19.70;38.70;;;;;;5034204;28;20644;-63
2021/12/25 10:00:51;;;;;;;4.53;4.13;;;19.70;38.40;;;;;;5038470;28;20436;-64
2021/12/25 10:03:17;;;;;;;5.40;4.23;;;19.70;38.30;;;;;;5036950;28;20466;-64
2021/12/25 10:05:46;;;;;;;5.30;4.30;;;19.70;38.30;;;;;;5038884;28;20483;-65
2021/12/25 10:08:18;;;;;;;4.17;3.77;;;19.70;38.00;;;;;;5039729;28;20571;-64
2021/12/25 10:10:45;;;;;;;7.03;3.53;;;19.70;37.60;;;;;;5039186;28;20426;-63
2021/12/25 10:13:29;;;;;;;5.27;3.50;;;19.70;37.50;;;;;;5040783;28;20529;-63
2021/12/25 10:16:17;;;;;;;4.87;3.33;;;19.70;37.50;;;;;;5038310;28;20493;-64
2021/12/25 10:18:43;;;;;;;5.53;3.30;;;19.70;37.50;;;;;;5034569;28;20463;-62
2021/12/25 10:21:29;;;;;;;7.17;4.33;;;19.70;37.40;;;;;;5040605;28;20460;-64
2021/12/25 10:24:06;;;;;;;7.83;4.40;;;19.80;37.50;;;;;;5031708;28;20463;-63
2021/12/25 10:26:36;;;;;;;19.73;4.63;;;19.70;37.50;;;;;;5037703;28;20542;-62
2021/12/25 10:29:23;;;;;;;8.90;3.40;;;19.70;37.40;;;;;;5034145;28;20465;-62
2021/12/25 10:31:53;;;;;;;9.70;4.43;;;19.70;37.50;;;;;;5037877;28;20480;-64
2021/12/25 10:34:22;;;;;;;4.43;3.33;;;19.70;37.30;;;;;;5032178;28;20436;-64
2021/12/25 10:36:49;;;;;;;8.13;3.50;;;19.70;37.10;;;;;;5034541;28;20968;-67
2021/12/25 10:39:22;;;;;;;12.13;3.63;;;19.70;37.00;;;;;;5037812;28;20455;-66
2021/12/25 10:41:56;;;;;;;4.90;3.20;;;19.80;36.70;;;;;;5038365;28;20858;-66
2021/12/25 10:44:24;;;;;;;3.17;2.93;;;19.80;36.30;;;;;;5038247;28;20460;-65
2021/12/25 10:47:06;;;;;;;3.03;2.83;;;19.70;36.20;;;;;;5037838;28;20461;-63
2021/12/25 10:49:44;;;;;;;4.20;2.70;;;19.80;36.10;;;;;;5031764;28;20528;-64
2021/12/25 10:52:21;;;;;;;3.23;2.73;;;19.80;36.00;;;;;;5038398;28;20533;-63
2021/12/25 10:54:53;;;;;;;4.90;2.70;;;19.80;36.00;;;;;;5036094;28;20827;-73
2021/12/25 10:57:39;;;;;;;3.00;2.60;;;19.80;35.80;;;;;;5039068;28;20924;-68
2021/12/25 11:00:07;;;;;;;5.20;2.83;;;19.80;35.80;;;;;;5036430;28;20456;-64
2021/12/25 11:02:41;;;;;;;2.87;2.57;;;19.80;35.80;;;;;;5037465;28;21145;-65
2021/12/25 11:05:16;;;;;;;2.70;2.50;;;19.80;36.00;;;;;;5038112;28;20455;-64
2021/12/25 11:07:42;;;;;;;4.80;2.90;;;19.80;36.10;;;;;;5035132;28;20468;-64
2021/12/25 11:10:16;;;;;;;2.50;2.30;;;19.70;36.20;;;;;;5039142;28;20520;-65
2021/12/25 11:12:41;;;;;;;3.77;2.37;;;19.70;36.30;;;;;;5037923;28;20448;-64
2021/12/25 11:15:19;;;;;;;6.80;2.57;;;19.70;36.50;;;;;;5037116;28;20520;-65
2021/12/25 11:17:52;;;;;;;3.20;2.13;;;19.70;36.60;;;;;;5035397;28;20261;-63
2021/12/25 11:20:31;;;;;;;2.93;2.73;;;19.70;36.80;;;;;;5038835;28;20440;-64
2021/12/25 11:22:59;;;;;;;3.67;2.30;;;19.70;37.00;;;;;;5041855;28;20510;-63
2021/12/25 11:25:27;;;;;;;3.90;2.33;;;19.70;37.10;;;;;;5044241;28;20442;-63
2021/12/25 11:27:55;;;;;;;2.10;1.90;;;19.70;37.20;;;;;;5039976;28;20451;-63
2021/12/25 11:30:28;;;;;;;3.70;2.00;;;19.70;37.30;;;;;;5040113;28;20490;-63
2021/12/25 11:32:55;;;;;;;2.57;2.20;;;19.70;38.20;;;;;;5037926;28;20455;-66
2021/12/25 11:35:21;;;;;;;2.47;2.27;;;19.70;37.50;;;;;;5041112;28;20490;-64
2021/12/25 11:37:49;;;;;;;3.20;1.80;;;19.70;37.60;;;;;;5042876;28;20476;-63
2021/12/25 11:40:17;;;;;;;2.53;2.33;;;19.70;37.70;;;;;;5041058;28;20490;-67
2021/12/25 11:42:46;;;;;;;2.93;1.63;;;19.70;37.70;;;;;;5040117;28;20492;-62
2021/12/25 11:45:19;;;;;;;2.00;1.80;;;19.60;37.70;;;;;;5035375;28;20919;-63
2021/12/25 11:47:48;;;;;;;2.07;1.87;;;19.70;37.80;;;;;;5042441;28;21015;-65
2021/12/25 11:50:33;;;;;;;2.50;2.00;;;19.60;37.90;;;;;;5041129;28;20451;-63
2021/12/25 11:53:25;;;;;;;1.93;1.83;;;19.60;37.90;;;;;;5039033;28;20900;-66
2021/12/25 11:56:26;;;;;;;2.63;1.90;;;19.60;37.90;;;;;;5037983;28;20647;-63
2021/12/25 11:58:58;;;;;;;2.10;1.90;;;19.60;38.00;;;;;;5039957;28;20430;-64
2021/12/25 12:01:51;;;;;;;2.53;2.07;;;19.60;38.00;;;;;;5039574;28;20569;-63
2021/12/25 12:04:24;;;;;;;1.60;1.50;;;19.60;38.10;;;;;;5039307;28;20468;-64
2021/12/25 12:07:04;;;;;;;2.50;1.70;;;19.60;38.20;;;;;;5040165;28;20455;-64
2021/12/25 12:09:45;;;;;;;2.00;1.80;;;19.60;38.20;;;;;;5037370;28;20944;-65
2021/12/25 12:12:22;;;;;;;3.90;2.20;;;19.60;38.20;;;;;;5035323;28;20466;-66
2021/12/25 12:15:11;;;;;;;2.60;1.60;;;19.60;38.30;;;;;;5038551;28;20444;-63
2021/12/25 12:17:38;;;;;;;1.70;1.60;;;19.60;38.30;;;;;;5041292;28;20451;-63
2021/12/25 12:20:06;;;;;;;2.23;2.03;;;19.60;38.30;;;;;;5041027;28;20447;-62
2021/12/25 12:26:01;;;;;;;1.70;1.60;;;19.60;38.30;;;;;;5033372;28;20451;-63
2021/12/25 12:28:17;;;;;;;3.73;1.70;;;19.60;38.50;;;;;;5036080;28;20859;-65
2021/12/25 12:30:48;;;;;;;1.60;1.40;;;19.60;38.50;;;;;;5041732;28;20448;-63
2021/12/25 12:33:17;;;;;;;1.60;1.50;;;19.60;38.40;;;;;;5038042;28;20238;-62
2021/12/25 12:35:45;;;;;;;2.40;1.57;;;19.60;38.50;;;;;;5039265;28;20441;-62
2021/12/25 12:38:41;;;;;;;1.70;1.50;;;19.60;38.40;;;;;;5040534;28;20484;-63
2021/12/25 12:41:33;;;;;;;2.07;1.50;;;19.60;38.40;;;;;;5037445;28;20475;-62
2021/12/25 12:44:16;;;;;;;2.00;1.70;;;19.60;39.20;;;;;;5039448;28;20434;-62
2021/12/25 12:46:51;;;;;;;1.50;1.40;;;19.60;38.50;;;;;;5039124;28;20472;-64
2021/12/25 12:49:21;;;;;;;3.60;1.80;;;19.60;38.50;;;;;;5036741;28;20436;-62
2021/12/25 12:51:49;;;;;;;1.70;1.60;;;19.50;38.50;;;;;;5039180;28;20419;-65
2021/12/25 12:54:42;;;;;;;1.77;1.67;;;19.50;38.50;;;;;;5039944;28;20543;-65
2021/12/25 12:57:08;;;;;;;1.50;1.40;;;19.60;38.60;;;;;;5037925;28;20809;-62
2021/12/25 12:59:48;;;;;;;1.60;1.50;;;19.60;38.60;;;;;;5040991;28;20483;-65
2021/12/25 13:02:15;;;;;;;2.50;1.50;;;19.50;38.40;;;;;;5041621;28;20232;-62
2021/12/25 13:04:55;;;;;;;1.70;1.60;;;19.50;38.50;;;;;;5037774;28;20425;-62
2021/12/25 13:07:22;;;;;;;1.63;1.53;;;19.50;38.50;;;;;;5041705;28;20447;-62
2021/12/25 13:10:02;;;;;;;2.40;1.50;;;19.50;38.40;;;;;;5041115;28;20414;-63
2021/12/25 13:12:37;;;;;;;1.33;1.23;;;19.60;38.60;;;;;;5039418;28;20463;-64
2021/12/25 13:15:11;;;;;;;1.63;1.20;;;19.50;38.60;;;;;;5038990;28;20448;-62
2021/12/25 13:17:38;;;;;;;1.80;1.53;;;19.50;38.60;;;;;;5038099;28;20432;-63
2021/12/25 13:20:07;;;;;;;1.40;1.30;;;19.50;38.70;;;;;;5040114;28;20499;-62
2021/12/25 13:22:34;;;;;;;1.50;1.40;;;19.50;38.60;;;;;;5037280;28;20460;-63
2021/12/25 13:25:08;;;;;;;1.33;1.23;;;19.50;38.50;;;;;;5041731;28;20832;-62
2021/12/25 13:27:33;;;;;;;1.63;1.43;;;19.50;38.60;;;;;;5040793;28;20475;-62
2021/12/25 13:30:16;;;;;;;1.47;1.37;;;19.50;38.50;;;;;;5039612;28;20488;-64
2021/12/25 13:32:43;;;;;;;1.93;1.30;;;19.50;39.30;;;;;;5037518;28;20592;-62
2021/12/25 13:35:10;;;;;;;1.33;1.23;;;19.50;39.30;;;;;;5041937;28;20967;-64
2021/12/25 13:37:36;;;;;;;1.50;1.40;;;19.50;38.50;;;;;;5037420;28;20455;-62
2021/12/25 13:40:07;;;;;;;1.67;1.57;;;19.50;38.50;;;;;;5041256;28;20435;-62
2021/12/25 13:42:33;;;;;;;1.50;1.40;;;19.50;38.50;;;;;;5037853;28;20226;-62
2021/12/25 13:44:59;;;;;;;1.53;1.43;;;19.50;38.60;;;;;;5038230;28;20459;-62
2021/12/25 13:47:27;;;;;;;1.30;1.20;;;19.50;38.60;;;;;;5036145;28;20558;-62
2021/12/25 13:49:55;;;;;;;1.60;1.30;;;19.50;38.50;;;;;;5039936;28;20269;-62
2021/12/25 13:52:22;;;;;;;1.30;1.20;;;19.50;38.60;;;;;;5038287;28;20447;-63
2021/12/25 13:55:11;;;;;;;1.50;1.40;;;19.50;38.60;;;;;;5038654;28;20460;-65
2021/12/25 13:57:44;;;;;;;1.17;1.07;;;19.50;38.60;;;;;;5038450;28;20456;-62
2021/12/25 14:00:19;;;;;;;1.67;1.57;;;19.50;38.50;;;;;;5040583;28;20467;-65
2021/12/25 14:02:49;;;;;;;1.30;1.20;;;19.50;38.60;;;;;;5038400;28;20456;-63
2021/12/25 14:05:16;;;;;;;1.60;1.50;;;19.50;38.60;;;;;;5038786;28;20472;-62
2021/12/25 14:07:43;;;;;;;1.73;1.10;;;19.50;38.60;;;;;;5036810;28;21002;-62
2021/12/25 14:10:15;;;;;;;1.40;1.30;;;19.50;38.60;;;;;;5038035;28;20555;-63